Time;durP1;ratioP1;P1;durP2;ratioP2;P2;SDS_P1;SDS_P2;PMS_P1;PMS_P2;Temp;Humidity;BMP_temperature;BMP_pressure;BME280_temperature;BME280_humidity;BME280_pressure;Samples;Min_cycle;Max_cycle;Signal;HPM_P1;HPM_P2
2021/12/01 00:01:48;;;;;;;6.50;3.17;;;10.20;99.90;;;;;;6239919;23;20019;-62
2021/12/01 00:04:13;;;;;;;9.65;3.85;;;10.20;99.90;;;;;;6239888;22;20505;-63
2021/12/01 00:06:39;;;;;;;11.32;4.00;;;10.20;99.90;;;;;;6241348;22;20457;-62
2021/12/01 00:09:05;;;;;;;6.80;3.65;;;10.20;99.90;;;;;;6241944;22;20035;-62
2021/12/01 00:11:31;;;;;;;8.15;4.57;;;10.20;99.90;;;;;;6240493;22;20342;-63
2021/12/01 00:13:56;;;;;;;9.75;4.78;;;10.20;99.90;;;;;;6242054;22;20010;-62
2021/12/01 00:16:22;;;;;;;10.20;4.22;;;10.20;99.90;;;;;;6241013;22;20381;-62
2021/12/01 00:18:48;;;;;;;10.35;4.28;;;10.20;99.90;;;;;;6241412;22;20022;-62
2021/12/01 00:21:14;;;;;;;6.20;3.58;;;10.20;99.90;;;;;;6239524;22;20405;-62
2021/12/01 00:23:39;;;;;;;6.03;3.38;;;10.20;99.90;;;;;;6241464;22;20075;-63
2021/12/01 00:26:05;;;;;;;7.28;4.40;;;10.20;99.90;;;;;;6241827;22;20442;-62
2021/12/01 00:28:31;;;;;;;6.55;3.47;;;10.20;99.90;;;;;;6240974;22;20012;-63
2021/12/01 00:30:58;;;;;;;8.15;3.47;;;10.20;99.90;;;;;;6240912;22;20447;-62
2021/12/01 00:33:24;;;;;;;8.07;3.60;;;10.30;99.90;;;;;;6240639;22;20083;-64
2021/12/01 00:35:51;;;;;;;7.20;4.00;;;10.30;99.90;;;;;;6241851;22;20039;-62
2021/12/01 00:38:18;;;;;;;7.38;3.92;;;10.30;99.90;;;;;;6241047;22;20465;-61
2021/12/01 00:40:43;;;;;;;10.77;4.50;;;10.30;99.90;;;;;;6240828;22;20024;-63
2021/12/01 00:43:16;;;;;;;7.50;4.28;;;10.30;99.90;;;;;;6241746;22;20008;-63
2021/12/01 00:45:49;;;;;;;7.88;4.15;;;10.40;99.90;;;;;;6240483;22;20446;-62
2021/12/01 00:48:16;;;;;;;6.88;3.28;;;10.30;99.90;;;;;;6239214;22;20492;-62
2021/12/01 00:50:41;;;;;;;7.45;3.03;;;10.30;99.90;;;;;;6240623;22;20077;-62
2021/12/01 00:53:08;;;;;;;7.00;3.00;;;10.40;99.90;;;;;;6241710;22;20040;-62
2021/12/01 00:55:34;;;;;;;6.72;3.08;;;10.40;99.90;;;;;;6238566;22;20366;-61
2021/12/01 00:58:00;;;;;;;6.25;2.42;;;10.40;99.90;;;;;;6239715;23;20497;-63
2021/12/01 01:00:28;;;;;;;5.47;2.78;;;10.40;99.90;;;;;;6239936;22;20008;-63
2021/12/01 01:02:56;;;;;;;6.30;1.85;;;10.40;99.90;;;;;;6242051;22;20507;-62
2021/12/01 01:05:22;;;;;;;5.60;2.30;;;10.40;99.90;;;;;;6239756;22;20075;-62
2021/12/01 01:07:48;;;;;;;3.72;2.08;;;10.40;99.90;;;;;;6241138;22;20030;-62
2021/12/01 01:10:45;;;;;;;2.90;1.80;;;10.40;99.90;;;;;;6240053;22;20004;-62
2021/12/01 01:18:47;;;;;;;5.47;1.83;;;10.40;99.90;;;;;;6240764;22;20015;-61
2021/12/01 01:21:13;;;;;;;;;;;10.40;99.90;;;;;;6240822;22;20023;-61
2021/12/01 01:23:40;;;;;;;2.72;1.50;;;10.40;99.90;;;;;;6240738;22;20326;-62
2021/12/01 01:26:08;;;;;;;4.30;1.25;;;10.40;99.90;;;;;;6240927;22;20079;-63
2021/12/01 01:28:34;;;;;;;8.60;1.48;;;10.40;99.90;;;;;;6240494;22;20007;-62
2021/12/01 01:31:01;;;;;;;4.40;1.30;;;10.40;99.90;;;;;;6240755;22;20087;-62
2021/12/01 01:33:26;;;;;;;4.50;1.52;;;10.40;99.90;;;;;;6240738;22;20031;-63
2021/12/01 01:35:52;;;;;;;4.18;1.30;;;10.40;99.90;;;;;;6240838;22;20008;-62
2021/12/01 01:38:19;;;;;;;2.72;1.70;;;10.30;99.90;;;;;;6239634;22;20008;-64
2021/12/01 01:40:45;;;;;;;2.25;1.05;;;10.30;99.90;;;;;;6238837;22;20043;-63
2021/12/01 01:43:11;;;;;;;6.90;1.15;;;10.40;99.90;;;;;;6239255;23;20004;-62
2021/12/01 01:45:38;;;;;;;3.97;1.25;;;10.30;99.90;;;;;;6240182;22;20435;-62
2021/12/01 01:48:09;;;;;;;3.63;1.13;;;10.30;99.90;;;;;;6240899;22;20004;-62
2021/12/01 01:50:38;;;;;;;5.50;1.65;;;10.40;99.90;;;;;;6238398;22;20024;-62
2021/12/01 01:53:17;;;;;;;2.65;1.20;;;10.30;99.90;;;;;;6239092;23;20012;-62
2021/12/01 01:55:45;;;;;;;3.28;1.15;;;10.30;99.90;;;;;;6240306;22;20034;-62
2021/12/01 01:58:14;;;;;;;3.75;1.13;;;10.30;99.90;;;;;;6241058;22;20000;-62
2021/12/01 02:00:48;;;;;;;2.03;0.93;;;10.30;99.90;;;;;;6239588;22;20342;-62
2021/12/01 02:03:14;;;;;;;2.30;0.70;;;10.30;99.90;;;;;;6239733;22;20032;-63
2021/12/01 02:05:40;;;;;;;1.98;0.90;;;10.30;99.90;;;;;;6238962;22;20494;-61
2021/12/01 02:08:15;;;;;;;2.58;0.75;;;10.30;99.90;;;;;;6240857;22;20342;-62
2021/12/01 02:10:42;;;;;;;4.07;1.23;;;10.20;99.90;;;;;;6239965;22;20035;-62
2021/12/01 02:13:08;;;;;;;5.22;0.80;;;10.20;99.90;;;;;;6240607;22;20335;-62
2021/12/01 02:15:35;;;;;;;1.17;0.50;;;10.20;99.90;;;;;;6238967;22;20105;-61
2021/12/01 02:18:01;;;;;;;2.85;0.93;;;10.20;99.90;;;;;;6240873;22;20008;-62
2021/12/01 02:20:27;;;;;;;1.02;0.55;;;10.10;99.90;;;;;;6239332;22;20019;-62
2021/12/01 02:22:52;;;;;;;1.35;0.75;;;10.10;99.90;;;;;;6240370;22;20075;-62
2021/12/01 02:25:23;;;;;;;5.35;1.20;;;10.10;99.90;;;;;;6239957;22;20011;-62
2021/12/01 02:27:49;;;;;;;3.08;1.13;;;10.10;99.90;;;;;;6240081;22;20062;-62
2021/12/01 02:30:14;;;;;;;3.25;1.00;;;10.10;99.90;;;;;;6240101;22;20373;-62
2021/12/01 02:32:40;;;;;;;1.55;0.75;;;10.00;99.90;;;;;;6239890;22;20000;-63
2021/12/01 02:35:06;;;;;;;2.53;0.90;;;10.00;99.90;;;;;;6240176;22;20032;-62
2021/12/01 02:37:32;;;;;;;4.85;0.75;;;10.00;99.90;;;;;;6239353;22;21372;-61
2021/12/01 02:39:58;;;;;;;1.83;0.60;;;9.90;99.90;;;;;;6240549;22;20369;-61
2021/12/01 02:42:24;;;;;;;4.18;0.70;;;9.90;99.90;;;;;;6237056;22;20386;-67
2021/12/01 02:44:50;;;;;;;4.03;1.40;;;9.90;99.90;;;;;;6240468;22;20075;-62
2021/12/01 02:47:16;;;;;;;2.25;0.70;;;9.90;99.90;;;;;;6239942;22;20342;-62
2021/12/01 02:49:41;;;;;;;2.28;0.70;;;9.90;99.90;;;;;;6239664;22;20016;-63
2021/12/01 02:52:07;;;;;;;2.38;0.65;;;9.90;99.90;;;;;;6240648;22;20434;-61
2021/12/01 02:54:33;;;;;;;1.88;0.63;;;9.90;99.90;;;;;;6239107;22;20012;-63
2021/12/01 02:56:59;;;;;;;3.38;0.80;;;9.90;99.90;;;;;;6239795;22;20334;-63
2021/12/01 02:59:26;;;;;;;1.30;0.82;;;9.90;99.90;;;;;;6239339;22;20019;-63
2021/12/01 03:01:54;;;;;;;1.08;0.45;;;9.90;99.90;;;;;;6240887;22;19997;-62
2021/12/01 03:04:21;;;;;;;0.80;0.40;;;9.90;99.90;;;;;;6239913;22;20465;-62
2021/12/01 03:06:49;;;;;;;0.98;0.40;;;9.80;99.90;;;;;;6241226;22;20087;-62
2021/12/01 03:09:16;;;;;;;2.05;0.30;;;9.90;99.90;;;;;;6239872;22;20008;-63
2021/12/01 03:11:43;;;;;;;0.98;0.68;;;9.80;99.90;;;;;;6241894;22;20016;-63
2021/12/01 03:14:15;;;;;;;0.88;0.50;;;9.80;99.90;;;;;;6241837;22;20008;-63
2021/12/01 03:16:43;;;;;;;1.13;0.60;;;9.80;99.90;;;;;;6240642;22;20008;-62
2021/12/01 03:19:09;;;;;;;0.90;0.30;;;9.80;99.90;;;;;;6242023;22;20015;-63
2021/12/01 03:21:36;;;;;;;4.97;0.68;;;9.80;99.90;;;;;;6238077;22;20000;-62
2021/12/01 03:24:03;;;;;;;2.90;0.85;;;9.80;99.90;;;;;;6242316;22;20099;-62
2021/12/01 03:26:31;;;;;;;4.50;1.10;;;9.80;99.90;;;;;;6238574;22;20315;-61
2021/12/01 03:28:57;;;;;;;3.50;1.20;;;9.70;99.90;;;;;;6240660;23;20015;-62
2021/12/01 03:31:22;;;;;;;3.08;1.35;;;9.70;99.90;;;;;;6241165;22;20036;-62
2021/12/01 03:33:48;;;;;;;3.53;1.45;;;9.70;99.90;;;;;;6241600;22;20081;-63
2021/12/01 03:36:14;;;;;;;8.77;2.30;;;9.70;99.90;;;;;;6239753;22;20016;-64
2021/12/01 03:38:39;;;;;;;2.92;1.58;;;9.70;99.90;;;;;;6241557;22;20012;-61
2021/12/01 03:41:05;;;;;;;3.28;1.48;;;9.70;99.90;;;;;;6241953;22;20012;-62
2021/12/01 03:43:31;;;;;;;5.10;1.48;;;9.70;99.90;;;;;;6241155;22;20027;-62
2021/12/01 03:45:56;;;;;;;5.22;1.88;;;9.70;99.90;;;;;;6241922;22;20351;-62
2021/12/01 03:48:23;;;;;;;4.68;1.83;;;9.70;99.90;;;;;;6241691;22;20015;-63
2021/12/01 03:50:51;;;;;;;4.43;2.15;;;9.70;99.90;;;;;;6242504;22;20087;-63
2021/12/01 03:53:18;;;;;;;5.80;2.38;;;9.60;99.90;;;;;;6242280;22;20213;-63
2021/12/01 03:55:44;;;;;;;6.88;2.33;;;9.60;99.90;;;;;;6242295;22;20043;-62
2021/12/01 03:58:10;;;;;;;4.72;2.08;;;9.60;99.90;;;;;;6242617;22;20012;-62
2021/12/01 04:00:35;;;;;;;4.35;1.42;;;9.70;99.90;;;;;;6241357;22;20091;-62
2021/12/01 04:03:01;;;;;;;4.57;1.70;;;9.70;99.90;;;;;;6242552;22;20016;-62
2021/12/01 04:05:27;;;;;;;6.72;1.98;;;9.60;99.90;;;;;;6241235;22;20016;-62
2021/12/01 04:07:53;;;;;;;4.00;2.10;;;9.60;99.90;;;;;;6239686;23;20397;-61
2021/12/01 04:10:19;;;;;;;8.32;2.78;;;9.60;99.90;;;;;;6242011;22;20018;-64
2021/12/01 04:12:45;;;;;;;4.38;1.88;;;9.50;99.90;;;;;;6241915;22;20330;-61
2021/12/01 04:15:13;;;;;;;3.50;2.10;;;9.50;99.90;;;;;;6242822;22;20004;-62
2021/12/01 04:17:40;;;;;;;6.15;1.88;;;9.50;99.90;;;;;;6242357;22;20005;-62
2021/12/01 04:20:06;;;;;;;3.45;1.40;;;9.50;99.90;;;;;;6242701;22;20012;-63
2021/12/01 04:22:32;;;;;;;2.33;1.25;;;9.50;99.90;;;;;;6241209;22;20463;-63
2021/12/01 04:24:58;;;;;;;2.17;1.42;;;9.50;99.90;;;;;;6240421;23;20458;-63
2021/12/01 04:27:23;;;;;;;2.38;1.48;;;9.50;99.90;;;;;;6243133;22;20083;-63
2021/12/01 04:29:49;;;;;;;3.30;1.42;;;9.40;99.90;;;;;;6241480;22;20062;-63
2021/12/01 04:32:15;;;;;;;1.95;1.20;;;9.40;99.90;;;;;;6243827;22;20409;-65
2021/12/01 04:34:40;;;;;;;3.63;1.50;;;9.40;99.90;;;;;;6243629;22;20004;-64
2021/12/01 04:37:06;;;;;;;3.40;1.92;;;9.30;99.90;;;;;;6244255;22;20058;-63
2021/12/01 04:39:32;;;;;;;2.35;1.48;;;9.40;99.90;;;;;;6240547;22;20011;-62
2021/12/01 04:42:04;;;;;;;2.58;1.48;;;9.30;99.90;;;;;;6241567;22;20423;-62
2021/12/01 04:44:31;;;;;;;2.45;1.40;;;9.20;99.90;;;;;;6240682;22;20446;-63
2021/12/01 04:46:57;;;;;;;2.35;1.45;;;9.30;99.90;;;;;;6242134;22;20426;-62
2021/12/01 04:49:24;;;;;;;4.45;1.92;;;9.20;99.90;;;;;;6240469;22;20000;-63
2021/12/01 04:52:00;;;;;;;3.33;2.15;;;9.20;99.90;;;;;;6241213;22;20458;-62
2021/12/01 04:54:27;;;;;;;5.22;1.70;;;9.20;99.90;;;;;;6240311;22;20349;-63
2021/12/01 04:56:53;;;;;;;4.57;2.10;;;9.20;99.90;;;;;;6241388;22;20012;-62
2021/12/01 04:59:20;;;;;;;3.75;1.75;;;9.20;99.90;;;;;;6240420;22;20000;-63
2021/12/01 05:01:47;;;;;;;3.38;1.92;;;9.10;99.90;;;;;;6241009;22;20087;-62
2021/12/01 05:04:13;;;;;;;4.95;2.00;;;9.20;99.90;;;;;;6238990;23;20188;-62
2021/12/01 05:06:39;;;;;;;3.17;1.70;;;9.10;99.90;;;;;;6238315;22;20499;-64
2021/12/01 05:09:07;;;;;;;4.22;1.90;;;9.20;99.90;;;;;;6239626;23;20012;-63
2021/12/01 05:11:33;;;;;;;3.90;2.30;;;9.10;99.90;;;;;;6240279;22;20012;-63
2021/12/01 05:13:59;;;;;;;5.57;2.30;;;9.10;99.90;;;;;;6241204;22;20337;-62
2021/12/01 05:16:24;;;;;;;2.63;1.83;;;9.10;99.90;;;;;;6240008;22;20031;-66
2021/12/01 05:18:50;;;;;;;4.40;2.65;;;9.10;99.90;;;;;;6238912;23;20009;-62
2021/12/01 05:21:16;;;;;;;5.55;2.40;;;9.10;99.90;;;;;;6238402;22;20334;-63
2021/12/01 05:23:42;;;;;;;2.70;1.88;;;9.10;99.90;;;;;;6240535;22;20012;-62
2021/12/01 05:26:09;;;;;;;4.10;2.22;;;9.10;99.90;;;;;;6240735;22;20438;-62
2021/12/01 05:28:35;;;;;;;4.55;2.28;;;9.10;99.90;;;;;;6239921;22;20028;-64
2021/12/01 05:31:01;;;;;;;3.55;2.10;;;9.10;99.90;;;;;;6240384;22;20012;-62
2021/12/01 05:33:26;;;;;;;6.38;2.80;;;9.20;99.90;;;;;;6239643;22;20517;-62
2021/12/01 05:35:52;;;;;;;7.57;2.38;;;9.20;99.90;;;;;;6240939;22;20008;-62
2021/12/01 05:38:18;;;;;;;4.43;2.50;;;9.10;99.90;;;;;;6240613;22;20433;-62
2021/12/01 05:40:47;;;;;;;4.47;2.47;;;9.10;99.90;;;;;;6240212;22;20058;-62
2021/12/01 05:43:13;;;;;;;4.30;2.28;;;9.10;99.90;;;;;;6240845;22;20015;-64
2021/12/01 05:45:39;;;;;;;5.63;2.83;;;9.20;99.90;;;;;;6239909;22;20008;-62
2021/12/01 05:48:05;;;;;;;4.57;2.60;;;9.10;99.90;;;;;;6240498;22;20370;-63
2021/12/01 05:50:31;;;;;;;8.88;2.70;;;9.10;99.90;;;;;;6239460;22;20346;-62
2021/12/01 05:52:56;;;;;;;4.57;2.60;;;9.10;99.90;;;;;;6239074;23;20015;-61
2021/12/01 05:55:22;;;;;;;5.35;2.95;;;9.10;99.90;;;;;;6240179;22;20337;-62
2021/12/01 05:57:48;;;;;;;4.22;2.13;;;9.10;99.90;;;;;;6240131;22;20024;-63
2021/12/01 06:00:14;;;;;;;5.07;2.30;;;9.10;99.90;;;;;;6240436;22;20005;-62
2021/12/01 06:02:42;;;;;;;4.78;2.25;;;9.10;99.90;;;;;;6233161;22;20016;-62
2021/12/01 06:05:08;;;;;;;3.53;2.03;;;9.10;99.90;;;;;;6237924;22;20039;-62
2021/12/01 06:07:34;;;;;;;4.60;2.00;;;9.10;99.90;;;;;;6236546;22;20016;-63
2021/12/01 06:10:02;;;;;;;3.75;2.30;;;9.10;99.90;;;;;;6237915;22;20065;-63
2021/12/01 06:12:28;;;;;;;4.65;2.08;;;9.10;99.90;;;;;;6234893;22;20004;-62
2021/12/01 06:14:55;;;;;;;2.97;2.10;;;9.10;99.90;;;;;;6236020;23;20349;-62
2021/12/01 06:17:21;;;;;;;5.30;2.30;;;9.10;99.90;;;;;;6237112;22;20058;-63
2021/12/01 06:19:46;;;;;;;7.13;2.50;;;9.10;99.90;;;;;;6236830;22;20004;-62
2021/12/01 06:22:12;;;;;;;4.50;2.13;;;9.10;99.90;;;;;;6237895;22;20430;-61
2021/12/01 06:24:37;;;;;;;5.13;2.38;;;9.10;99.90;;;;;;6237040;22;20004;-62
2021/12/01 06:27:05;;;;;;;6.45;3.20;;;9.10;99.90;;;;;;6238120;22;20035;-62
2021/12/01 06:29:30;;;;;;;4.22;2.22;;;9.10;99.90;;;;;;6236787;22;20032;-62
2021/12/01 06:31:56;;;;;;;6.30;2.65;;;9.10;99.90;;;;;;6238302;22;20373;-64
2021/12/01 06:34:22;;;;;;;6.43;3.10;;;9.10;99.90;;;;;;6237075;22;20009;-62
2021/12/01 06:36:47;;;;;;;7.00;2.20;;;9.10;99.90;;;;;;6237537;22;20039;-63
2021/12/01 06:39:13;;;;;;;4.05;1.88;;;9.10;99.90;;;;;;6237881;22;20012;-61
2021/12/01 06:41:39;;;;;;;5.50;2.25;;;9.10;99.90;;;;;;6237386;22;20012;-62
2021/12/01 06:44:05;;;;;;;4.28;1.73;;;9.20;99.90;;;;;;6237826;22;20013;-63
2021/12/01 06:46:31;;;;;;;4.88;2.05;;;9.20;99.90;;;;;;6236978;22;20338;-62
2021/12/01 06:48:57;;;;;;;3.72;2.08;;;9.20;99.90;;;;;;6238728;22;20012;-62
2021/12/01 06:51:23;;;;;;;4.28;1.73;;;9.10;99.90;;;;;;6237293;22;20045;-64
2021/12/01 06:53:49;;;;;;;4.43;1.77;;;9.10;99.90;;;;;;6238037;22;20012;-62
2021/12/01 06:56:16;;;;;;;3.75;1.75;;;9.20;99.90;;;;;;6237456;22;20034;-64
2021/12/01 06:58:42;;;;;;;2.38;1.45;;;9.20;99.90;;;;;;6237401;22;20016;-63
2021/12/01 07:01:08;;;;;;;4.18;2.00;;;9.20;99.90;;;;;;6237667;22;20015;-62
2021/12/01 07:03:35;;;;;;;3.60;1.70;;;9.10;99.90;;;;;;6236776;22;20016;-63
2021/12/01 07:06:01;;;;;;;3.20;1.48;;;9.20;99.90;;;;;;6238122;22;20004;-63
2021/12/01 07:08:27;;;;;;;4.40;1.45;;;9.20;99.90;;;;;;6234820;22;20070;-62
2021/12/01 07:10:52;;;;;;;2.38;1.13;;;9.20;99.90;;;;;;6238022;22;20023;-62
2021/12/01 07:13:18;;;;;;;4.03;1.50;;;9.20;99.90;;;;;;6235372;22;20008;-63
2021/12/01 07:15:44;;;;;;;1.65;0.90;;;9.20;99.90;;;;;;6237381;22;21122;-62
2021/12/01 07:18:10;;;;;;;2.25;1.00;;;9.20;99.90;;;;;;6237670;22;20015;-62
2021/12/01 07:20:35;;;;;;;1.73;1.00;;;9.20;99.90;;;;;;6236593;22;20004;-62
2021/12/01 07:23:02;;;;;;;3.30;1.38;;;9.20;99.90;;;;;;6237400;22;20032;-62
2021/12/01 07:25:29;;;;;;;2.70;1.00;;;9.20;99.90;;;;;;6234467;22;20400;-62
2021/12/01 07:27:55;;;;;;;1.83;0.70;;;9.20;99.90;;;;;;6237625;22;20012;-62
2021/12/01 07:30:21;;;;;;;1.63;0.80;;;9.20;99.90;;;;;;6236524;22;20012;-62
2021/12/01 07:32:48;;;;;;;3.00;0.93;;;9.30;99.90;;;;;;6237361;22;20083;-62
2021/12/01 07:35:14;;;;;;;1.40;1.17;;;9.30;99.90;;;;;;6237452;22;20004;-68
2021/12/01 07:37:40;;;;;;;2.88;1.20;;;9.30;99.90;;;;;;6237377;22;20015;-62
2021/12/01 07:40:06;;;;;;;1.42;1.00;;;9.30;99.90;;;;;;6237661;22;20008;-62
2021/12/01 07:42:32;;;;;;;5.45;1.40;;;9.30;99.90;;;;;;6236276;22;20001;-62
2021/12/01 07:44:57;;;;;;;2.95;1.27;;;9.30;99.90;;;;;;6238008;22;20007;-62
2021/12/01 07:47:23;;;;;;;2.70;1.50;;;9.30;99.90;;;;;;6237256;22;20431;-62
2021/12/01 07:49:49;;;;;;;3.35;1.38;;;9.30;99.90;;;;;;6239466;22;20043;-61
2021/12/01 07:52:14;;;;;;;7.97;2.65;;;9.40;99.90;;;;;;6238154;22;20008;-66
2021/12/01 07:54:40;;;;;;;2.15;1.30;;;9.40;99.90;;;;;;6238904;22;20342;-62
2021/12/01 07:57:07;;;;;;;6.35;1.88;;;9.40;99.90;;;;;;6238477;22;20066;-62
2021/12/01 07:59:32;;;;;;;4.50;1.77;;;9.40;99.90;;;;;;6237605;22;20004;-62
2021/12/01 08:01:58;;;;;;;6.57;1.52;;;9.40;99.90;;;;;;6237332;23;20018;-62
2021/12/01 08:04:25;;;;;;;6.63;1.33;;;9.40;99.90;;;;;;6237901;22;20437;-62
2021/12/01 08:06:51;;;;;;;9.88;1.48;;;9.40;99.90;;;;;;6237934;22;20442;-62
2021/12/01 08:09:17;;;;;;;2.92;1.30;;;9.40;99.90;;;;;;6237745;22;20012;-62
2021/12/01 08:11:42;;;;;;;5.78;1.48;;;9.40;99.90;;;;;;6238113;22;20507;-61
2021/12/01 08:14:08;;;;;;;4.85;1.00;;;9.50;99.90;;;;;;6236743;23;20012;-62
2021/12/01 08:16:37;;;;;;;5.22;1.45;;;9.40;99.90;;;;;;6235115;22;20008;-62
2021/12/01 08:19:04;;;;;;;4.85;1.02;;;9.50;99.90;;;;;;6239409;22;20407;-63
2021/12/01 08:21:30;;;;;;;17.35;0.90;;;9.50;99.90;;;;;;6237509;22;20036;-62
2021/12/01 08:23:56;;;;;;;12.35;1.13;;;9.40;99.90;;;;;;6238375;22;20012;-62
2021/12/01 08:26:22;;;;;;;5.07;0.73;;;9.30;99.90;;;;;;6237083;22;20015;-62
2021/12/01 08:28:48;;;;;;;12.18;2.22;;;9.20;99.90;;;;;;6237767;22;20004;-62
2021/12/01 08:31:16;;;;;;;7.82;0.95;;;9.20;99.90;;;;;;6236525;22;20058;-62
2021/12/01 08:33:42;;;;;;;5.95;1.25;;;9.20;99.90;;;;;;6237554;22;20389;-62
2021/12/01 08:36:09;;;;;;;5.35;0.60;;;9.10;99.90;;;;;;6238651;22;20016;-62
2021/12/01 08:38:37;;;;;;;12.30;1.55;;;9.00;99.90;;;;;;6236508;22;20515;-62
2021/12/01 08:41:03;;;;;;;2.97;0.40;;;9.00;99.90;;;;;;6238278;22;20008;-62
2021/12/01 08:43:29;;;;;;;9.98;1.58;;;8.90;99.90;;;;;;6237320;22;20648;-62
2021/12/01 08:45:55;;;;;;;13.75;1.80;;;9.00;99.90;;;;;;6237781;22;20035;-61
2021/12/01 08:48:22;;;;;;;9.70;0.73;;;9.00;99.90;;;;;;6238065;22;20331;-62
2021/12/01 08:50:48;;;;;;;4.63;0.60;;;8.90;99.90;;;;;;6237016;22;20346;-62
2021/12/01 08:53:14;;;;;;;5.07;1.33;;;9.00;99.90;;;;;;6237595;22;20004;-62
2021/12/01 08:55:41;;;;;;;8.80;0.32;;;9.00;99.90;;;;;;6237495;22;20450;-62
2021/12/01 08:58:12;;;;;;;4.65;0.38;;;9.00;99.90;;;;;;6236272;23;20008;-61
2021/12/01 09:00:43;;;;;;;2.85;0.50;;;9.00;99.90;;;;;;6234515;22;20008;-63
2021/12/01 09:03:10;;;;;;;9.38;0.93;;;9.00;99.90;;;;;;6238406;22;20024;-61
2021/12/01 09:05:36;;;;;;;7.15;0.70;;;9.00;99.90;;;;;;6236775;22;20000;-62
2021/12/01 09:08:02;;;;;;;4.22;0.30;;;9.10;99.90;;;;;;6237514;22;20465;-61
2021/12/01 09:10:28;;;;;;;5.65;0.57;;;9.10;99.90;;;;;;6237038;22;20012;-62
2021/12/01 09:12:53;;;;;;;7.47;0.40;;;9.10;99.90;;;;;;6238347;22;20005;-62
2021/12/01 09:15:19;;;;;;;1.23;0.30;;;9.20;99.90;;;;;;6237349;22;20351;-62
2021/12/01 09:17:45;;;;;;;7.47;0.70;;;9.20;99.90;;;;;;6237072;22;20039;-61
2021/12/01 09:20:12;;;;;;;7.68;0.30;;;9.30;99.90;;;;;;6237815;22;20004;-61
2021/12/01 09:22:38;;;;;;;4.63;0.30;;;9.40;99.90;;;;;;6235556;22;20503;-62
2021/12/01 09:25:04;;;;;;;7.57;1.00;;;9.40;99.90;;;;;;6237163;22;20253;-62
2021/12/01 09:27:30;;;;;;;10.15;1.45;;;9.50;99.90;;;;;;6236545;22;20008;-62
2021/12/01 09:29:55;;;;;;;3.72;0.63;;;9.50;99.90;;;;;;6235141;22;20338;-62
2021/12/01 09:32:21;;;;;;;10.98;1.05;;;9.50;99.90;;;;;;6235580;22;20007;-62
2021/12/01 09:34:47;;;;;;;8.02;0.77;;;9.50;99.90;;;;;;6236008;22;20424;-62
2021/12/01 09:37:13;;;;;;;5.55;1.05;;;9.50;99.90;;;;;;6237929;22;20069;-61
2021/12/01 09:39:39;;;;;;;7.50;0.68;;;9.40;99.90;;;;;;6234815;22;20062;-62
2021/12/01 09:42:05;;;;;;;4.75;1.00;;;9.40;99.90;;;;;;6237680;22;20016;-62
2021/12/01 09:44:32;;;;;;;6.32;0.32;;;9.30;99.90;;;;;;6234922;22;20004;-61
2021/12/01 09:46:58;;;;;;;3.90;0.60;;;9.20;99.90;;;;;;6237853;22;20084;-62
2021/12/01 09:49:24;;;;;;;4.40;0.38;;;9.10;99.90;;;;;;6237044;22;19996;-62
2021/12/01 09:51:50;;;;;;;3.75;0.40;;;9.10;99.90;;;;;;6237538;22;20099;-62
2021/12/01 09:54:15;;;;;;;3.83;0.47;;;9.00;99.90;;;;;;6235556;22;20020;-62
2021/12/01 09:56:41;;;;;;;7.97;0.30;;;9.10;99.90;;;;;;6236781;22;20023;-61
2021/12/01 09:59:07;;;;;;;6.35;0.95;;;9.00;99.90;;;;;;6237709;22;20019;-62
2021/12/01 10:01:33;;;;;;;9.13;0.70;;;9.00;99.90;;;;;;6236238;22;20008;-62
2021/12/01 10:03:59;;;;;;;3.85;0.50;;;9.10;99.90;;;;;;6237740;22;20085;-62
2021/12/01 10:06:27;;;;;;;6.15;0.50;;;9.00;99.90;;;;;;6234460;22;20082;-63
2021/12/01 10:09:04;;;;;;;8.07;1.15;;;9.10;99.90;;;;;;6238040;22;20689;-62
2021/12/01 10:11:39;;;;;;;10.10;1.65;;;9.10;99.90;;;;;;6235930;22;20524;-62
2021/12/01 10:14:21;;;;;;;5.90;1.00;;;9.10;99.90;;;;;;6237520;22;20083;-62
2021/12/01 10:16:52;;;;;;;7.90;0.45;;;9.10;99.90;;;;;;6235999;22;20087;-62
2021/12/01 10:19:18;;;;;;;4.18;0.73;;;9.10;99.90;;;;;;6237073;22;20000;-62
2021/12/01 10:21:48;;;;;;;6.57;0.73;;;9.10;99.90;;;;;;6236884;22;20023;-63
2021/12/01 10:24:15;;;;;;;8.93;0.77;;;9.10;99.90;;;;;;6237327;22;20008;-62
2021/12/01 10:27:02;;;;;;;6.20;1.98;;;9.10;99.90;;;;;;6236503;22;20355;-62
2021/12/01 10:29:39;;;;;;;1.35;0.63;;;9.20;99.90;;;;;;6236470;22;20121;-61
2021/12/01 10:32:06;;;;;;;6.68;1.63;;;9.30;99.90;;;;;;6237217;22;20022;-62
2021/12/01 10:34:36;;;;;;;6.40;0.57;;;9.30;99.90;;;;;;6236619;22;20346;-62
2021/12/01 10:37:12;;;;;;;4.60;0.70;;;9.40;99.90;;;;;;6237645;22;20058;-62
2021/12/01 10:39:42;;;;;;;3.63;0.50;;;9.30;99.90;;;;;;6236736;22;20064;-63
2021/12/01 10:42:11;;;;;;;6.00;0.68;;;9.30;99.90;;;;;;6236942;22;20012;-62
2021/12/01 10:44:37;;;;;;;6.22;0.75;;;9.30;99.90;;;;;;6236001;22;20350;-62
2021/12/01 10:47:10;;;;;;;7.38;0.70;;;9.30;99.90;;;;;;6237063;22;20008;-62
2021/12/01 10:49:40;;;;;;;10.63;1.85;;;9.30;99.90;;;;;;6235975;22;20012;-62
2021/12/01 10:52:26;;;;;;;9.98;1.20;;;9.40;99.90;;;;;;6237501;22;20018;-61
2021/12/01 10:55:17;;;;;;;5.63;0.98;;;9.50;99.90;;;;;;6225780;22;20008;-62
2021/12/01 10:57:44;;;;;;;;;;;9.60;99.90;;;;;;6237424;22;20016;-62
2021/12/01 11:00:20;;;;;;;5.07;0.80;;;9.60;99.90;;;;;;6237396;22;19939;-61
2021/12/01 11:02:46;;;;;;;5.38;0.50;;;9.60;99.90;;;;;;6235076;22;20043;-62
2021/12/01 11:05:31;;;;;;;7.35;0.80;;;9.60;99.90;;;;;;6237159;22;20015;-62
2021/12/01 11:08:08;;;;;;;6.82;1.25;;;9.60;99.90;;;;;;6235137;23;20442;-62
2021/12/01 11:10:34;;;;;;;6.63;0.82;;;9.60;99.90;;;;;;6235865;22;20474;-62
2021/12/01 11:13:02;;;;;;;5.20;0.88;;;9.60;99.90;;;;;;6237730;22;20010;-62
2021/12/01 11:15:31;;;;;;;1.60;0.70;;;9.70;99.90;;;;;;6236321;22;20024;-62
2021/12/01 11:17:58;;;;;;;3.20;0.60;;;9.60;99.90;;;;;;6236947;22;20342;-62
2021/12/01 11:20:48;;;;;;;10.00;0.90;;;9.50;99.90;;;;;;6236840;22;20000;-62
2021/12/01 11:23:24;;;;;;;9.57;1.08;;;9.50;99.90;;;;;;6238019;22;20397;-62
2021/12/01 11:25:55;;;;;;;6.80;1.75;;;9.50;99.90;;;;;;6238490;22;20119;-62
2021/12/01 11:28:24;;;;;;;7.47;1.00;;;9.60;99.90;;;;;;6238551;22;20016;-61
2021/12/01 11:30:58;;;;;;;13.57;1.02;;;9.60;99.90;;;;;;6240068;22;20008;-62
2021/12/01 11:33:26;;;;;;;10.95;1.13;;;9.60;99.90;;;;;;6239077;22;20009;-61
2021/12/01 11:35:57;;;;;;;8.07;0.57;;;9.60;99.90;;;;;;6239037;22;20019;-62
2021/12/01 11:38:23;;;;;;;7.00;1.27;;;9.70;99.90;;;;;;6239616;22;20019;-62
2021/12/01 11:40:51;;;;;;;13.65;1.00;;;9.50;99.90;;;;;;6238490;22;20001;-62
2021/12/01 11:43:18;;;;;;;11.27;1.65;;;9.60;99.90;;;;;;6239266;22;20361;-62
2021/12/01 11:45:45;;;;;;;7.38;1.65;;;9.60;99.90;;;;;;6238799;22;20032;-62
2021/12/01 11:48:20;;;;;;;6.50;1.00;;;9.60;99.90;;;;;;6239461;22;20350;-61
2021/12/01 11:50:55;;;;;;;12.13;0.70;;;9.60;99.90;;;;;;6237684;22;20027;-61
2021/12/01 11:53:34;;;;;;;9.10;1.38;;;9.60;99.90;;;;;;6236075;22;20047;-61
2021/12/01 11:56:18;;;;;;;7.55;0.52;;;9.70;99.90;;;;;;6238178;22;20454;-62
2021/12/01 11:58:54;;;;;;;6.63;0.90;;;9.60;99.90;;;;;;6238349;22;20019;-62
2021/12/01 12:01:22;;;;;;;5.60;0.50;;;9.60;99.90;;;;;;6236881;22;20088;-62
2021/12/01 12:03:54;;;;;;;10.45;0.68;;;9.60;99.90;;;;;;6240603;22;20012;-62
2021/12/01 12:06:36;;;;;;;3.97;0.68;;;9.60;99.90;;;;;;6237721;22;20008;-62
2021/12/01 12:09:11;;;;;;;16.38;1.80;;;9.60;99.90;;;;;;6241903;22;20096;-62
2021/12/01 12:11:41;;;;;;;11.43;0.95;;;9.60;99.90;;;;;;6241070;22;20008;-62
2021/12/01 12:14:32;;;;;;;6.77;1.40;;;9.60;99.90;;;;;;6241341;22;20039;-61
2021/12/01 12:17:10;;;;;;;3.85;0.57;;;9.60;99.90;;;;;;6238109;22;20235;-62
2021/12/01 12:19:56;;;;;;;8.20;0.70;;;9.60;99.90;;;;;;6240592;22;20366;-62
2021/12/01 12:22:41;;;;;;;7.70;0.90;;;9.70;99.90;;;;;;6241098;22;20008;-63
2021/12/01 12:25:11;;;;;;;9.00;0.73;;;9.70;99.90;;;;;;6240929;22;20004;-61
2021/12/01 12:27:44;;;;;;;9.25;1.08;;;9.70;99.90;;;;;;6240849;22;20012;-62
2021/12/01 12:30:34;;;;;;;5.03;0.98;;;9.70;99.90;;;;;;6241748;22;20008;-62
2021/12/01 12:33:17;;;;;;;4.60;0.82;;;9.60;99.90;;;;;;6238577;23;20480;-62
2021/12/01 12:35:46;;;;;;;5.80;0.40;;;9.70;99.90;;;;;;6240080;22;20016;-62
2021/12/01 12:38:12;;;;;;;6.43;0.63;;;9.70;99.90;;;;;;6241143;22;20008;-62
2021/12/01 12:40:38;;;;;;;6.32;0.80;;;9.70;99.90;;;;;;6240231;22;20004;-62
2021/12/01 12:43:23;;;;;;;4.53;0.73;;;9.70;99.90;;;;;;6241692;22;20333;-62
2021/12/01 12:46:16;;;;;;;4.10;0.82;;;9.70;99.90;;;;;;6240346;22;20008;-61
2021/12/01 12:48:50;;;;;;;5.75;0.52;;;9.60;99.90;;;;;;6240061;22;20020;-62
2021/12/01 12:51:31;;;;;;;6.95;0.70;;;9.60;99.90;;;;;;6240616;22;20016;-67
2021/12/01 12:54:01;;;;;;;8.85;0.40;;;9.50;99.90;;;;;;6239101;23;20074;-63
2021/12/01 12:56:30;;;;;;;5.25;0.75;;;9.50;99.90;;;;;;6240107;22;20472;-63
2021/12/01 12:59:32;;;;;;;7.03;0.50;;;9.60;99.90;;;;;;6239886;23;20012;-63
2021/12/01 13:02:10;;;;;;;4.60;0.73;;;9.50;99.90;;;;;;6229395;22;20008;-62
2021/12/01 13:04:48;;;;;;;6.32;0.80;;;9.50;99.90;;;;;;6240510;22;20046;-62
2021/12/01 13:07:34;;;;;;;9.15;0.98;;;9.50;99.90;;;;;;6241014;22;20389;-63